Aeroporto :
LOGIN :

Iscrizione | Disclaimer

   EN    FR    IT 

 










Sommario :    VFR   VFR Marginale   IFR   IFR Intensivo   IFR Molto Intensivo
Visibilità : 
Base nubi : 
>= 8 km
>= 3000ft
5 / 8 km
1000 / 3000 ft
1500m / 5 km
500 / 1000 ft
800 / 1500m
200 / 500 ft
< 800m
< 200 ft
Simboli :   Temporali  Nebbia  Neve Forte  Precipitazioni Forti  Vento > 20 kt
SIGMETs :   Varie  Temporali  Ghiacco  Turbolenza  Onda orograficha  Ceneri Vulcaniche






- Altitudine del aeroporto : -11 ft
- Codice IATA : AMS


EHAM - Amsterdam Schiphol

ULTIMO METAR :
  • 220955Z 23006KT 200V260 1000 R18C/1200N R27/1800N R18R/1000N R06/1400N PRFG -DZ FEW001 BKN002 OVC003 06/06 Q1036 NOSIG

METARs OBSOLETI :
  • 220925Z 24003KT 200V290 1000 R18C/1400N R27/1700N R18R/1100N R06/1500N PRFG -DZ FEW001 BKN002 OVC003 05/05 Q1037 NOSIG
  • 220855Z 21005KT 0900 R18C/1200N R27/1300N R18R/0900N R06/1400N PRFG -DZ FEW001 SCT002 BKN003 05/05 Q1036 NOSIG
  • 220825Z 21004KT 2000 0700NW R18C/1800D R27/P2000N R18R/1400N R06/P2000N PRFG BR FEW001 SCT003 BKN005 05/04 Q1036 BECMG BKN003
  • 220755Z 22004KT 2700 BR FEW003 BKN006 OVC007 04/04 Q1036 BECMG BKN003
  • 220725Z 21004KT 2600 BR FEW005 BKN008 OVC011 04/04 Q1036 BECMG BKN003

TAF AMD TAF EHAM
Valido dal 22 a 06 ore il 23 a 12 ore UTC


220647Z 2206/2312 22005KT 2500 BR SCT003 BKN008
BECMG 2209/2212 SCT002 BKN003
PROB40 2211/2312 0800 FG BKN001
PROB30 2213/2217 7000 NSW SCT018



MetMap, La meteo Aeronautica in un colpo d'occhio ! - Copyright ORBIFLY Dicembre 2007 - Disclaimer

ORBIFLY MET'MAP TEAM :

Programmazione e sviluppo : Alexandra Zaïnal
Concezione : Baudouin d'Aumeries
Aiuto per la programmazione : Marc-Olivier Méhu
Supporto tecnico e logistico : Manuel Goepfert
Aiuto per la traduzione : Arnaldo La Scala

Contatto : metmap@orbifly.com




FONTI E CREDITI :

   NOAA